createdAt,value
2019-04-02T00:01:14.267Z,101164.08
2019-04-02T00:03:43.422Z,101160.11
2019-04-02T00:06:12.703Z,101160.11
2019-04-02T00:08:42.305Z,101151.08
2019-04-02T00:11:13.457Z,101145.77
2019-04-02T00:13:42.628Z,101146.80
2019-04-02T00:16:12.272Z,101143.06
2019-04-02T00:18:43.090Z,101139.06
2019-04-02T00:21:12.219Z,101136.73
2019-04-02T00:23:42.907Z,101136.73
2019-04-02T00:26:13.345Z,101130.81
2019-04-02T00:28:45.419Z,101131.82
2019-04-02T00:31:14.477Z,101131.82
2019-04-02T00:33:43.627Z,101122.02
2019-04-02T00:36:12.810Z,101122.02
2019-04-02T00:38:41.889Z,101114.45
2019-04-02T00:41:11.041Z,101113.19
2019-04-02T00:43:41.016Z,101112.27
2019-04-02T00:46:10.109Z,101104.66
2019-04-02T00:48:39.201Z,101104.02
2019-04-02T00:51:09.264Z,101091.00
2019-04-02T00:53:39.113Z,101085.15
2019-04-02T00:56:08.274Z,101086.22
2019-04-02T00:58:37.327Z,101080.69
2019-04-02T01:01:07.561Z,101081.25
2019-04-02T01:03:36.656Z,101072.88
2019-04-02T01:06:06.161Z,101067.64
2019-04-02T01:08:39.943Z,101065.95
2019-04-02T01:11:08.993Z,101054.84
2019-04-02T01:13:38.253Z,101054.84
2019-04-02T01:16:07.349Z,101049.12
2019-04-02T01:18:36.311Z,101045.77
2019-04-02T01:21:06.383Z,101038.39
2019-04-02T01:23:35.836Z,101042.48
2019-04-02T01:26:05.004Z,101034.69
2019-04-02T01:28:34.063Z,101034.69
2019-04-02T01:31:03.110Z,101031.63
2019-04-02T01:33:32.141Z,101029.52
2019-04-02T01:36:01.277Z,101021.13
2019-04-02T01:38:32.911Z,101022.09
2019-04-02T01:41:05.389Z,101016.24
2019-04-02T01:43:50.295Z,101010.56
2019-04-02T01:46:19.423Z,101010.39
2019-04-02T01:48:48.431Z,101010.39
2019-04-02T01:51:17.435Z,101005.86
2019-04-02T01:53:46.564Z,100996.98
2019-04-02T01:56:15.771Z,100996.16
2019-04-02T01:58:44.877Z,100996.16
2019-04-02T02:01:13.908Z,100985.98
2019-04-02T02:03:43.074Z,100987.21
2019-04-02T02:06:12.480Z,100975.68
2019-04-02T02:08:41.799Z,100971.97
2019-04-02T02:11:11.211Z,100972.70
2019-04-02T02:13:40.206Z,100968.23
2019-04-02T02:16:09.401Z,100967.62
2019-04-02T02:18:38.416Z,100968.02
2019-04-02T02:21:07.431Z,100962.59
2019-04-02T02:23:36.504Z,100956.07
2019-04-02T02:26:07.271Z,100953.92
2019-04-02T02:28:36.664Z,100949.30
2019-04-02T02:31:08.374Z,100947.62
2019-04-02T02:33:38.316Z,100943.53
2019-04-02T02:36:07.159Z,100939.27
2019-04-02T02:38:36.315Z,100937.56
2019-04-02T02:41:42.402Z,100932.30
2019-04-02T02:44:13.090Z,100930.07
2019-04-02T02:46:44.804Z,100921.01
2019-04-02T02:49:13.710Z,100920.02
2019-04-02T02:51:42.784Z,100907.77
2019-04-02T02:54:11.895Z,100907.77
2019-04-02T02:56:41.074Z,100914.93
2019-04-02T02:59:10.210Z,100900.27
2019-04-02T03:01:44.172Z,100895.93
2019-04-02T03:04:16.162Z,100889.88
2019-04-02T03:06:46.628Z,100886.72
2019-04-02T03:09:15.843Z,100886.12
2019-04-02T03:11:47.367Z,100887.11
2019-04-02T03:14:19.445Z,100879.24
2019-04-02T03:16:48.680Z,100885.68
2019-04-02T03:19:17.817Z,100881.99
2019-04-02T03:21:47.561Z,100869.45
2019-04-02T03:24:18.191Z,100869.45
2019-04-02T03:26:47.583Z,100869.13
2019-04-02T03:29:16.727Z,100866.17
2019-04-02T03:31:45.878Z,100866.17
2019-04-02T03:34:14.962Z,100858.21
2019-04-02T03:36:44.036Z,100852.17
2019-04-02T03:39:13.150Z,100844.40
2019-04-02T03:41:42.152Z,100845.91
2019-04-02T03:44:12.776Z,100842.83
2019-04-02T03:46:43.547Z,100829.39
2019-04-02T03:49:14.636Z,100830.85
2019-04-02T03:51:46.102Z,100828.19
2019-04-02T03:54:14.306Z,100828.19
2019-04-02T03:56:43.441Z,100823.33
2019-04-02T03:59:12.425Z,100818.66
2019-04-02T04:01:41.539Z,100816.74
2019-04-02T04:04:14.453Z,100816.23
2019-04-02T04:06:51.324Z,100819.38
2019-04-02T04:09:21.928Z,100809.69
2019-04-02T04:11:50.962Z,100811.23
2019-04-02T04:14:26.070Z,100808.41
2019-04-02T04:16:55.224Z,100808.41
2019-04-02T04:19:24.205Z,100802.63
2019-04-02T04:21:53.409Z,100797.79
2019-04-02T04:24:26.779Z,100797.48
2019-04-02T04:26:55.764Z,100797.16
2019-04-02T04:29:24.864Z,100794.42
2019-04-02T04:31:53.994Z,100792.70
2019-04-02T04:34:22.995Z,100789.25
2019-04-02T04:36:52.122Z,100792.16
2019-04-02T04:39:21.401Z,100781.34
2019-04-02T04:41:50.674Z,100783.92
2019-04-02T04:44:21.455Z,100779.48
2019-04-02T04:46:50.613Z,100780.00
2019-04-02T04:49:19.696Z,100769.11
2019-04-02T04:51:48.766Z,100763.14
2019-04-02T04:54:17.747Z,100753.10
2019-04-02T04:56:46.748Z,100755.95
2019-04-02T04:59:15.791Z,100758.72
2019-04-02T05:01:44.859Z,100749.48
2019-04-02T05:04:55.516Z,100745.70
2019-04-02T05:07:24.507Z,100745.41
2019-04-02T05:09:53.498Z,100742.03
2019-04-02T05:12:22.527Z,100742.34
2019-04-02T05:14:51.507Z,100742.34
2019-04-02T05:17:20.516Z,100743.62
2019-04-02T05:19:51.302Z,100735.23
2019-04-02T05:22:20.428Z,100742.34
2019-04-02T05:24:49.437Z,100736.69
2019-04-02T05:27:18.546Z,100728.00
2019-04-02T05:29:47.562Z,100728.00
2019-04-02T05:32:18.928Z,100722.38
2019-04-02T05:34:48.900Z,100722.38
2019-04-02T05:37:18.012Z,100717.69
2019-04-02T05:39:47.331Z,100719.53
2019-04-02T05:42:16.366Z,100707.73
2019-04-02T05:44:51.242Z,100706.59
2019-04-02T05:47:23.679Z,100699.48
2019-04-02T05:49:55.182Z,100696.50
2019-04-02T05:52:24.646Z,100694.70
2019-04-02T05:54:54.375Z,100694.40
2019-04-02T05:57:23.403Z,100690.72
2019-04-02T05:59:52.558Z,100683.09
2019-04-02T06:02:27.860Z,100683.09
2019-04-02T06:04:58.266Z,100679.30
2019-04-02T06:07:27.269Z,100680.40
2019-04-02T06:09:56.293Z,100671.91
2019-04-02T06:12:25.350Z,100675.48
2019-04-02T06:14:54.384Z,100675.48
2019-04-02T06:17:23.731Z,100666.52
2019-04-02T06:19:52.746Z,100636.45
2019-04-02T06:22:21.870Z,100658.29
2019-04-02T06:24:51.690Z,100653.80
2019-04-02T06:27:20.992Z,100653.80
2019-04-02T06:29:51.881Z,100634.46
2019-04-02T06:32:20.848Z,100634.46
2019-04-02T06:34:49.886Z,100629.12
2019-04-02T06:37:18.863Z,100626.05
2019-04-02T06:39:48.153Z,100624.24
2019-04-02T06:42:17.635Z,100618.28
2019-04-02T06:44:47.911Z,100617.45
2019-04-02T06:47:18.915Z,100601.91
2019-04-02T06:52:21.649Z,100598.11
2019-04-02T06:54:50.736Z,100599.14
2019-04-02T06:57:29.481Z,100599.14
2019-04-02T06:59:58.796Z,100584.91
2019-04-02T07:02:30.919Z,100590.45
2019-04-02T07:05:02.776Z,100590.45
2019-04-02T07:07:33.468Z,100578.04
2019-04-02T07:10:05.188Z,100580.14
2019-04-02T07:12:46.448Z,100573.16
2019-04-02T07:15:15.606Z,100573.16
2019-04-02T07:17:44.721Z,100576.63
2019-04-02T07:20:14.015Z,100571.58
2019-04-02T07:22:46.037Z,100563.23
2019-04-02T07:25:15.528Z,100552.86
2019-04-02T07:27:44.600Z,100555.23
2019-04-02T07:30:13.954Z,100549.58
2019-04-02T07:32:43.061Z,100546.87
2019-04-02T07:35:12.631Z,100543.31
2019-04-02T07:37:41.674Z,100532.17
2019-04-02T07:40:10.846Z,100534.55
2019-04-02T07:42:39.913Z,100532.63
2019-04-02T07:45:10.656Z,100523.66
2019-04-02T07:47:40.125Z,100525.58
2019-04-02T07:50:09.401Z,100521.95
2019-04-02T07:52:38.487Z,100513.60
2019-04-02T07:55:07.667Z,100502.31
2019-04-02T07:57:36.767Z,100486.61
2019-04-02T08:00:10.527Z,100490.97
2019-04-02T08:02:39.823Z,100495.70
2019-04-02T08:05:09.061Z,100484.02
2019-04-02T08:07:39.352Z,100481.80
2019-04-02T08:10:08.545Z,100481.20
2019-04-02T08:12:37.639Z,100477.63
2019-04-02T08:15:06.863Z,100471.19
2019-04-02T08:17:36.051Z,100471.19
2019-04-02T08:20:10.264Z,100470.75
2019-04-02T08:22:38.424Z,100475.11
2019-04-02T08:25:07.622Z,100476.39
2019-04-02T08:27:37.256Z,100480.14
2019-04-02T08:30:07.962Z,100473.88
2019-04-02T08:32:37.070Z,100464.58
2019-04-02T08:35:09.321Z,100466.76
2019-04-02T08:37:38.475Z,100460.41
2019-04-02T08:40:11.911Z,100458.05
2019-04-02T08:42:41.092Z,100455.80
2019-04-02T08:45:11.661Z,100452.34
2019-04-02T08:47:40.793Z,100448.47
2019-04-02T08:50:10.343Z,100448.47
2019-04-02T08:52:39.504Z,100442.39
2019-04-02T08:55:11.048Z,100435.23
2019-04-02T08:57:40.149Z,100426.43
2019-04-02T09:00:12.724Z,100426.43
2019-04-02T09:02:43.280Z,100417.00
2019-04-02T09:05:12.620Z,100417.36
2019-04-02T09:07:41.652Z,100413.50
2019-04-02T09:10:10.899Z,100413.50
2019-04-02T09:12:40.017Z,100408.83
2019-04-02T09:15:09.411Z,100405.54
2019-04-02T09:17:38.486Z,100402.09
2019-04-02T09:20:07.816Z,100403.36
2019-04-02T09:22:37.033Z,100403.36
2019-04-02T09:25:07.385Z,100420.77
2019-04-02T09:27:54.020Z,100434.18
2019-04-02T09:30:23.162Z,100428.89
2019-04-02T09:32:52.135Z,100406.02
2019-04-02T09:35:21.254Z,100413.08
2019-04-02T09:37:50.349Z,100409.44
2019-04-02T09:40:19.458Z,100405.52
2019-04-02T09:42:48.518Z,100394.45
2019-04-02T09:45:17.795Z,100393.20
2019-04-02T09:47:46.906Z,100387.48
2019-04-02T09:50:16.016Z,100382.89
2019-04-02T09:52:45.150Z,100376.72
2019-04-02T09:55:14.330Z,100369.73
2019-04-02T09:57:43.406Z,100362.19
2019-04-02T10:00:16.685Z,100373.89
2019-04-02T10:02:45.974Z,100362.79
2019-04-02T10:05:16.032Z,100346.17
2019-04-02T10:07:45.142Z,100349.63
2019-04-02T10:10:16.407Z,100351.05
2019-04-02T10:12:45.460Z,100350.03
2019-04-02T10:15:17.264Z,100346.89
2019-04-02T10:17:47.895Z,100347.51
2019-04-02T10:20:17.265Z,100347.66
2019-04-02T10:22:46.327Z,100347.14
2019-04-02T10:25:17.432Z,100340.60
2019-04-02T10:27:47.796Z,100340.60
2019-04-02T10:30:18.893Z,100340.19
2019-04-02T10:32:48.044Z,100338.03
2019-04-02T10:35:20.408Z,100333.05
2019-04-02T10:37:48.061Z,100329.34
2019-04-02T10:40:17.451Z,100325.63
2019-04-02T10:42:48.812Z,100325.63
2019-04-02T10:45:24.943Z,100324.95
2019-04-02T10:47:48.780Z,100318.20
2019-04-02T10:50:18.201Z,100321.27
2019-04-02T10:52:47.340Z,100316.70
2019-04-02T10:55:16.956Z,100316.70
2019-04-02T10:57:46.038Z,100308.01
2019-04-02T11:00:17.764Z,100307.65
2019-04-02T11:02:46.911Z,100298.08
2019-04-02T11:05:18.526Z,100292.61
2019-04-02T11:07:47.682Z,100294.84
2019-04-02T11:10:17.053Z,100287.50
2019-04-02T11:12:48.264Z,100288.36
2019-04-02T11:15:17.149Z,100283.10
2019-04-02T11:17:46.161Z,100280.99
2019-04-02T11:20:15.855Z,100273.81
2019-04-02T11:22:44.908Z,100267.45
2019-04-02T11:25:14.478Z,100277.97
2019-04-02T11:27:46.418Z,100269.42
2019-04-02T11:30:17.411Z,100280.31
2019-04-02T11:32:46.575Z,100274.25
2019-04-02T11:35:16.952Z,100276.36
2019-04-02T11:37:46.119Z,100270.89
2019-04-02T11:40:15.693Z,100269.37
2019-04-02T11:42:44.746Z,100264.83
2019-04-02T11:45:16.585Z,100264.83
2019-04-02T11:47:45.764Z,100262.38
2019-04-02T11:50:15.618Z,100254.27
2019-04-02T11:52:44.724Z,100252.23
2019-04-02T11:55:13.864Z,100252.23
2019-04-02T11:57:42.906Z,100248.97
2019-04-02T12:00:16.193Z,100244.36
2019-04-02T12:02:45.319Z,100238.45
2019-04-02T12:05:20.847Z,100236.41
2019-04-02T12:07:45.655Z,100236.56
2019-04-02T12:10:14.781Z,100229.80
2019-04-02T12:12:44.929Z,100232.22
2019-04-02T12:15:14.293Z,100220.94
2019-04-02T12:17:44.610Z,100213.09
2019-04-02T12:20:15.196Z,100211.97
2019-04-02T12:22:44.308Z,100214.05
2019-04-02T12:25:13.422Z,100214.05
2019-04-02T12:27:42.469Z,100203.06
2019-04-02T12:30:12.159Z,100199.47
2019-04-02T12:32:41.151Z,100206.13
2019-04-02T12:35:10.546Z,100200.86
2019-04-02T12:37:41.758Z,100193.11
2019-04-02T12:40:12.148Z,100180.38
2019-04-02T12:42:45.421Z,100172.89
2019-04-02T12:45:12.122Z,100173.97
2019-04-02T12:47:41.244Z,100172.59
2019-04-02T12:50:10.807Z,100175.82
2019-04-02T12:52:41.532Z,100171.78
2019-04-02T12:55:10.910Z,100164.33
2019-04-02T12:57:39.993Z,100155.73
2019-04-02T13:00:09.547Z,100157.92
2019-04-02T13:02:38.550Z,100148.71
2019-04-02T13:05:07.938Z,100154.58
2019-04-02T13:07:37.047Z,100146.14
2019-04-02T13:10:09.669Z,100141.56
2019-04-02T13:12:37.673Z,100142.70
2019-04-02T13:15:07.777Z,100131.38
2019-04-02T13:17:36.921Z,100135.23
2019-04-02T13:20:06.895Z,100137.06
2019-04-02T13:22:36.510Z,100137.06
2019-04-02T13:25:06.173Z,100128.68
2019-04-02T13:27:35.160Z,100119.94
2019-04-02T13:30:09.025Z,100128.13
2019-04-02T13:32:38.192Z,100117.05
2019-04-02T13:35:07.855Z,100117.27
2019-04-02T13:37:36.983Z,100108.42
2019-04-02T13:40:06.849Z,100109.47
2019-04-02T13:42:35.919Z,100109.38
2019-04-02T13:45:05.702Z,100109.38
2019-04-02T13:47:34.918Z,100100.49
2019-04-02T13:50:04.282Z,100086.60
2019-04-02T13:52:33.379Z,100087.14
2019-04-02T13:55:02.377Z,100070.63
2019-04-02T13:57:31.451Z,100074.47
2019-04-02T14:00:01.724Z,100067.10
2019-04-02T14:02:33.265Z,100065.16
2019-04-02T14:05:02.049Z,100063.75
2019-04-02T14:07:31.148Z,100063.75
2019-04-02T14:10:00.435Z,100058.98
2019-04-02T14:12:30.176Z,100038.53
2019-04-02T14:14:59.410Z,100038.53
2019-04-02T14:17:29.899Z,100028.67
2019-04-02T14:19:59.097Z,100028.36
2019-04-02T14:22:28.107Z,100028.36
2019-04-02T14:24:57.201Z,100022.52
2019-04-02T14:27:26.252Z,100021.70
2019-04-02T14:29:55.280Z,100011.70
2019-04-02T14:32:24.358Z,100002.97
2019-04-02T14:34:53.452Z,99994.02
2019-04-02T14:37:22.479Z,99994.34
2019-04-02T14:39:51.489Z,99999.18
2019-04-02T14:42:20.498Z,99987.83
2019-04-02T14:44:49.560Z,99987.68
2019-04-02T14:47:19.503Z,99981.91
2019-04-02T14:49:48.526Z,99973.41
2019-04-02T14:52:17.630Z,99965.19
2019-04-02T14:54:46.683Z,99960.09
2019-04-02T14:57:16.107Z,99960.09
2019-04-02T14:59:45.750Z,99951.98
2019-04-02T15:02:14.782Z,99946.88
2019-04-02T15:04:43.808Z,99940.80
2019-04-02T15:07:12.895Z,99946.18
2019-04-02T15:09:41.918Z,99952.38
2019-04-02T15:12:10.964Z,99940.03
2019-04-02T15:14:44.921Z,99943.77
2019-04-02T15:17:13.377Z,99927.56
2019-04-02T15:19:42.364Z,99928.61
2019-04-02T15:22:12.270Z,99928.20
2019-04-02T15:24:44.341Z,99932.50
2019-04-02T15:27:13.372Z,99926.13
2019-04-02T15:29:42.345Z,99925.37
2019-04-02T15:32:11.380Z,99928.16
2019-04-02T15:34:40.385Z,99926.16
2019-04-02T15:37:09.479Z,99926.16
2019-04-02T15:39:38.498Z,99915.45
2019-04-02T15:42:09.568Z,99913.17
2019-04-02T15:44:38.319Z,99907.75
2019-04-02T15:47:07.334Z,99898.09
2019-04-02T15:49:36.333Z,99900.99
2019-04-02T15:52:06.983Z,99891.27
2019-04-02T15:54:38.462Z,99878.48
2019-04-02T15:57:06.718Z,99874.27
2019-04-02T15:59:35.813Z,99859.58
2019-04-02T16:02:05.006Z,99857.92
2019-04-02T16:04:34.073Z,99859.19
2019-04-02T16:07:03.143Z,99874.00
2019-04-02T16:09:32.272Z,100036.41
2019-04-02T16:12:01.352Z,100036.34
2019-04-02T16:14:30.360Z,100064.67
2019-04-02T16:16:59.340Z,100101.16
2019-04-02T16:19:28.339Z,100107.91
2019-04-02T16:21:58.053Z,100092.22
2019-04-02T16:24:27.244Z,100095.68
2019-04-02T16:26:58.170Z,100099.05
2019-04-02T16:29:29.246Z,100095.21
2019-04-02T16:31:58.287Z,100094.97
2019-04-02T16:34:37.855Z,100102.57
2019-04-02T16:36:58.025Z,100099.95
2019-04-02T16:39:27.064Z,100098.75
2019-04-02T16:41:56.105Z,100095.69
2019-04-02T16:44:25.203Z,100104.95
2019-04-02T16:46:54.259Z,100102.67
2019-04-02T16:49:23.299Z,100099.51
2019-04-02T16:51:52.297Z,100104.77
2019-04-02T16:54:21.384Z,100089.50
2019-04-02T16:56:50.525Z,100064.86
2019-04-02T16:59:19.542Z,100049.86
2019-04-02T17:01:48.519Z,100035.95
2019-04-02T17:04:17.572Z,100026.98
2019-04-02T17:06:46.609Z,100021.62
2019-04-02T17:09:18.597Z,100021.05
2019-04-02T17:11:49.619Z,100006.05
2019-04-02T17:14:45.248Z,99991.19
2019-04-02T17:17:14.323Z,99983.96
2019-04-02T17:19:43.417Z,99996.59
2019-04-02T17:22:12.734Z,100005.52
2019-04-02T17:24:41.770Z,100003.35
2019-04-02T17:27:10.968Z,100008.26
2019-04-02T17:29:40.035Z,99999.83
2019-04-02T17:32:09.193Z,100000.46
2019-04-02T17:34:38.571Z,100009.34
2019-04-02T17:37:07.874Z,100002.72
2019-04-02T17:39:36.911Z,99999.42
2019-04-02T17:42:12.702Z,100008.45
2019-04-02T17:44:36.720Z,100004.52
2019-04-02T17:47:05.825Z,100006.27
2019-04-02T17:49:34.832Z,100010.23
2019-04-02T17:52:04.859Z,100011.25
2019-04-02T17:54:34.356Z,100018.34
2019-04-02T17:57:03.500Z,100014.78
2019-04-02T17:59:32.647Z,100020.01
2019-04-02T18:02:01.858Z,100021.73
2019-04-02T18:04:42.023Z,100018.15
2019-04-02T18:07:04.720Z,100018.15
2019-04-02T18:09:33.742Z,100020.33
2019-04-02T18:12:02.833Z,100023.55
2019-04-02T18:14:33.690Z,100019.98
2019-04-02T18:17:07.740Z,100020.01
2019-04-02T18:19:37.005Z,100010.20
2019-04-02T18:22:06.156Z,100010.20
2019-04-02T18:24:35.142Z,99995.66
2019-04-02T18:29:32.384Z,99977.41
2019-04-02T18:32:01.801Z,99970.83
2019-04-02T18:34:30.827Z,99970.80
2019-04-02T18:36:59.928Z,99976.13
2019-04-02T18:39:30.207Z,99997.11
2019-04-02T18:41:59.587Z,99992.74
2019-04-02T18:44:28.621Z,100002.41
2019-04-02T18:46:57.861Z,100006.12
2019-04-02T18:49:27.110Z,100012.10
2019-04-02T18:51:56.115Z,100020.06
2019-04-02T18:54:25.130Z,100029.56
2019-04-02T18:56:55.640Z,100038.20
2019-04-02T18:59:25.154Z,100041.38
2019-04-02T19:01:55.538Z,100026.67
2019-04-02T19:04:24.957Z,100028.28
2019-04-02T19:06:54.222Z,100028.38
2019-04-02T19:09:23.313Z,100028.38
2019-04-02T19:11:52.492Z,100030.70
2019-04-02T19:14:23.882Z,100028.82
2019-04-02T19:16:55.190Z,100025.88
2019-04-02T19:19:27.443Z,100028.58
2019-04-02T19:21:57.579Z,100030.51
2019-04-02T19:24:26.305Z,100030.51
2019-04-02T19:26:56.915Z,100028.91
2019-04-02T19:29:25.894Z,100029.11
2019-04-02T19:34:26.406Z,100037.63
2019-04-02T19:36:55.644Z,100032.38
2019-04-02T19:39:26.954Z,100033.90
2019-04-02T19:41:59.259Z,100035.58
2019-04-02T19:44:28.436Z,100036.38
2019-04-02T19:46:58.367Z,100034.59
2019-04-02T19:49:28.137Z,100023.11
2019-04-02T19:51:58.403Z,100023.71
2019-04-02T19:54:28.971Z,100026.87
2019-04-02T19:56:59.295Z,100026.87
2019-04-02T19:59:30.134Z,100032.36
2019-04-02T20:01:59.950Z,100028.38
2019-04-02T20:04:30.596Z,100019.62
2019-04-02T20:07:03.180Z,100019.62
2019-04-02T20:09:32.524Z,100027.81
2019-04-02T20:12:01.675Z,100025.44
2019-04-02T20:14:30.692Z,100022.30
2019-04-02T20:16:59.718Z,100014.67
2019-04-02T20:19:28.759Z,100019.03
2019-04-02T20:21:57.734Z,100020.86
2019-04-02T20:24:26.808Z,100028.27
2019-04-02T20:26:55.848Z,100020.99
2019-04-02T20:29:24.837Z,100019.37
2019-04-02T20:31:53.965Z,100023.48
2019-04-02T20:34:23.985Z,100021.36
2019-04-02T20:36:54.869Z,100021.36
2019-04-02T20:39:23.832Z,100024.47
2019-04-02T20:41:52.866Z,100017.48
2019-04-02T20:44:21.856Z,100026.30
2019-04-02T20:46:50.966Z,100024.13
2019-04-02T20:49:20.086Z,100018.83
2019-04-02T20:51:49.096Z,100018.78
2019-04-02T20:54:18.190Z,100018.20
2019-04-02T20:56:47.298Z,100016.09
2019-04-02T20:59:16.361Z,100016.09
2019-04-02T21:01:53.397Z,100014.56
2019-04-02T21:04:21.360Z,100023.86
2019-04-02T21:06:51.930Z,100027.36
2019-04-02T21:09:23.485Z,100032.52
2019-04-02T21:11:51.811Z,100032.52
2019-04-02T21:14:22.842Z,100037.16
2019-04-02T21:16:51.644Z,100040.80
2019-04-02T21:19:20.741Z,100029.17
2019-04-02T21:21:49.756Z,100032.99
2019-04-02T21:24:19.143Z,100038.98
2019-04-02T21:26:50.483Z,100037.16
2019-04-02T21:29:19.201Z,100040.24
2019-04-02T21:31:48.288Z,100050.25
2019-04-02T21:34:18.294Z,100062.88
2019-04-02T21:36:48.984Z,100054.69
2019-04-02T21:39:20.795Z,100052.80
2019-04-02T21:41:52.955Z,100070.03
2019-04-02T21:44:22.386Z,100062.33
2019-04-02T21:46:51.563Z,100059.96
2019-04-02T21:49:20.678Z,100060.34
2019-04-02T21:54:24.559Z,100059.86
2019-04-02T21:56:53.566Z,100045.33
2019-04-02T21:59:23.732Z,100046.91
2019-04-02T22:01:52.852Z,100058.48
2019-04-02T22:04:21.950Z,100056.34
2019-04-02T22:06:51.057Z,100061.27
2019-04-02T22:09:24.110Z,100054.02
2019-04-02T22:11:53.127Z,100048.55
2019-04-02T22:14:22.131Z,100049.82
2019-04-02T22:16:51.151Z,100055.44
2019-04-02T22:19:20.205Z,100047.80
2019-04-02T22:21:49.204Z,100047.80
2019-04-02T22:26:46.300Z,100064.31
2019-04-02T22:29:16.211Z,100072.03
2019-04-02T22:31:47.198Z,100074.20
2019-04-02T22:34:16.196Z,100074.20
2019-04-02T22:36:45.410Z,100079.00
2019-04-02T22:39:14.445Z,100070.10
2019-04-02T22:41:43.620Z,100064.30
2019-04-02T22:44:12.627Z,100057.41
2019-04-02T22:46:43.231Z,100057.41
2019-04-02T22:49:12.844Z,100061.92
2019-04-02T22:51:41.824Z,100070.30
2019-04-02T22:54:10.851Z,100076.53
2019-04-02T22:56:39.967Z,100076.53
2019-04-02T22:59:12.206Z,100067.98
2019-04-02T23:01:41.269Z,100065.73
2019-04-02T23:04:16.011Z,100074.65
2019-04-02T23:06:45.060Z,100076.78
2019-04-02T23:09:14.069Z,100077.80
2019-04-02T23:11:43.097Z,100077.22
2019-04-02T23:14:14.597Z,100073.52
2019-04-02T23:16:54.105Z,100079.19
2019-04-02T23:19:14.422Z,100079.34
2019-04-02T23:21:43.864Z,100081.80
2019-04-02T23:24:14.195Z,100081.80
2019-04-02T23:26:43.279Z,100075.82
2019-04-02T23:29:13.748Z,100075.38
2019-04-02T23:31:44.261Z,100071.37
2019-04-02T23:34:13.344Z,100075.73
2019-04-02T23:36:42.339Z,100067.28
2019-04-02T23:39:11.356Z,100071.00
2019-04-02T23:42:03.323Z,100069.84
2019-04-02T23:44:11.122Z,100073.16
2019-04-02T23:46:40.210Z,100073.16
2019-04-02T23:49:09.205Z,100060.64
2019-04-02T23:51:38.261Z,100058.86
2019-04-02T23:54:07.488Z,100063.11
2019-04-02T23:56:36.438Z,100067.21
2019-04-02T23:59:05.567Z,100070.86
